Time;durP1;ratioP1;P1;durP2;ratioP2;P2;SDS_P1;SDS_P2;PMS_P1;PMS_P2;Temp;Humidity;BMP_temperature;BMP_pressure;BME280_temperature;BME280_humidity;BME280_pressure;Samples;Min_cycle;Max_cycle;Signal;HPM_P1;HPM_P2
2023/06/08 00:00:30;;;;;;;9.00;8.30;;;24.80;54.50;;;;;;5030722;28;20458;-69
2023/06/08 00:03:04;;;;;;;8.80;8.00;;;24.80;54.40;;;;;;5043174;28;20454;-69
2023/06/08 00:05:43;;;;;;;8.27;7.67;;;24.80;54.50;;;;;;5027815;28;20457;-68
2023/06/08 00:08:12;;;;;;;8.60;7.90;;;24.80;54.40;;;;;;5024050;28;20456;-68
2023/06/08 00:10:42;;;;;;;9.00;8.30;;;24.80;54.40;;;;;;5015264;28;20545;-68
2023/06/08 00:13:12;;;;;;;8.37;7.77;;;24.80;54.50;;;;;;5017370;28;20801;-69
2023/06/08 00:15:41;;;;;;;8.10;7.50;;;24.80;54.50;;;;;;5017935;28;20504;-69
2023/06/08 00:18:10;;;;;;;8.30;7.70;;;24.80;54.40;;;;;;5020722;28;20470;-69
2023/06/08 00:20:40;;;;;;;7.83;7.20;;;24.80;54.50;;;;;;5026157;28;20465;-68
2023/06/08 00:23:08;;;;;;;7.70;7.10;;;24.80;54.50;;;;;;5038678;28;20484;-69
2023/06/08 00:25:38;;;;;;;9.43;8.63;;;24.70;54.50;;;;;;5011872;28;20511;-68
2023/06/08 00:28:06;;;;;;;8.33;7.60;;;24.80;55.80;;;;;;5022710;28;20864;-69
2023/06/08 00:30:36;;;;;;;8.93;8.33;;;24.70;54.40;;;;;;5032063;28;20464;-69
2023/06/08 00:33:04;;;;;;;8.40;7.77;;;24.70;54.40;;;;;;5042840;28;21069;-69
2023/06/08 00:35:33;;;;;;;9.37;8.67;;;24.80;54.40;;;;;;5039884;28;20475;-68
2023/06/08 00:38:01;;;;;;;7.87;7.27;;;24.70;54.30;;;;;;5015759;28;20452;-68
2023/06/08 00:40:29;;;;;;;9.33;8.53;;;24.70;54.40;;;;;;5022843;28;20464;-68
2023/06/08 00:42:58;;;;;;;8.40;7.80;;;24.70;54.40;;;;;;5022942;28;20808;-69
2023/06/08 00:45:27;;;;;;;8.83;8.13;;;24.70;54.40;;;;;;5027664;28;20472;-69
2023/06/08 00:47:57;;;;;;;9.10;8.40;;;24.70;54.40;;;;;;5030896;28;20956;-68
2023/06/08 00:50:26;;;;;;;8.40;7.80;;;24.70;54.50;;;;;;5028345;28;20465;-69
2023/06/08 00:52:54;;;;;;;8.60;7.87;;;24.70;54.50;;;;;;5035633;28;20434;-69
2023/06/08 00:55:24;;;;;;;8.67;8.07;;;24.70;54.60;;;;;;5030168;28;20473;-69
2023/06/08 00:57:52;;;;;;;7.90;7.30;;;24.70;54.60;;;;;;5042611;28;20447;-68
2023/06/08 01:00:22;;;;;;;8.60;8.00;;;24.70;54.60;;;;;;5030642;28;20476;-67
2023/06/08 01:02:51;;;;;;;9.43;8.33;;;24.70;54.80;;;;;;5023456;28;20465;-69
2023/06/08 01:05:20;;;;;;;8.37;7.77;;;24.70;54.70;;;;;;5043142;28;20485;-69
2023/06/08 01:08:00;;;;;;;7.73;7.07;;;24.70;54.60;;;;;;5003065;28;20846;-68
2023/06/08 01:10:35;;;;;;;9.70;8.87;;;24.70;54.70;;;;;;5033340;28;20550;-69
2023/06/08 01:13:10;;;;;;;7.70;7.10;;;24.70;55.80;;;;;;5043339;28;20928;-69
2023/06/08 01:15:43;;;;;;;8.97;8.17;;;24.70;54.80;;;;;;5032837;28;21049;-69
2023/06/08 01:18:17;;;;;;;9.77;8.97;;;24.70;54.60;;;;;;5018961;28;20932;-68
2023/06/08 01:21:07;;;;;;;9.00;8.30;;;24.70;54.60;;;;;;5031535;28;20500;-69
2023/06/08 01:23:54;;;;;;;8.77;8.07;;;24.60;54.50;;;;;;5025637;28;20987;-69
2023/06/08 01:26:26;;;;;;;8.50;7.73;;;24.70;54.60;;;;;;5041535;28;20848;-69
2023/06/08 01:28:55;;;;;;;9.27;8.47;;;24.60;54.50;;;;;;5037247;28;20454;-69
2023/06/08 01:31:24;;;;;;;8.80;8.10;;;24.60;54.40;;;;;;5018365;28;20442;-68
2023/06/08 01:33:53;;;;;;;9.30;8.60;;;24.60;54.50;;;;;;5034379;28;20435;-69
2023/06/08 01:36:27;;;;;;;8.37;7.77;;;24.60;54.50;;;;;;5018572;28;20503;-68
2023/06/08 01:39:08;;;;;;;7.67;7.07;;;24.60;54.50;;;;;;5025778;28;20891;-69
2023/06/08 01:41:42;;;;;;;8.07;7.37;;;24.60;54.50;;;;;;5014935;28;21022;-67
2023/06/08 01:44:14;;;;;;;8.77;8.07;;;24.60;54.50;;;;;;5035893;28;20454;-69
2023/06/08 01:46:49;;;;;;;8.73;7.97;;;24.60;54.50;;;;;;5031861;28;20829;-69
2023/06/08 01:49:19;;;;;;;9.40;8.60;;;24.60;54.50;;;;;;5024891;28;21033;-68
2023/06/08 01:51:47;;;;;;;8.57;7.83;;;24.60;54.60;;;;;;5034445;28;20451;-69
2023/06/08 01:54:17;;;;;;;7.10;6.60;;;24.60;54.50;;;;;;5023720;28;20468;-69
2023/06/08 01:56:45;;;;;;;8.97;8.27;;;24.60;54.50;;;;;;5039055;28;20473;-69
2023/06/08 01:59:14;;;;;;;8.70;8.00;;;24.60;54.60;;;;;;5028209;28;20573;-69
2023/06/08 02:01:42;;;;;;;8.40;7.70;;;24.50;54.50;;;;;;5035795;28;20950;-68
2023/06/08 02:04:11;;;;;;;8.43;7.73;;;24.50;54.40;;;;;;5033838;28;20437;-69
2023/06/08 02:06:39;;;;;;;8.37;7.77;;;24.60;54.50;;;;;;5028748;28;20451;-69
2023/06/08 02:09:07;;;;;;;8.77;7.97;;;24.50;54.50;;;;;;5025106;28;20439;-67
2023/06/08 02:11:37;;;;;;;8.13;7.43;;;24.50;54.50;;;;;;5025318;28;20448;-68
2023/06/08 02:14:05;;;;;;;9.17;8.47;;;24.50;54.40;;;;;;5025468;28;20456;-69
2023/06/08 02:16:34;;;;;;;9.00;8.30;;;24.50;54.50;;;;;;5017007;28;20463;-69
2023/06/08 02:19:03;;;;;;;7.90;7.40;;;24.50;54.50;;;;;;5023502;28;21036;-69
2023/06/08 02:21:32;;;;;;;8.93;8.20;;;24.50;54.40;;;;;;5025041;28;20485;-69
2023/06/08 02:24:00;;;;;;;8.43;7.80;;;24.50;54.40;;;;;;5037550;28;20467;-69
2023/06/08 02:26:29;;;;;;;7.80;7.20;;;24.50;54.30;;;;;;5026269;28;20493;-69
2023/06/08 02:29:02;;;;;;;8.07;7.40;;;24.50;54.50;;;;;;5030315;28;20436;-69
2023/06/08 02:31:31;;;;;;;8.10;7.50;;;24.50;54.50;;;;;;5028521;28;20478;-69
2023/06/08 02:33:59;;;;;;;7.70;7.10;;;24.50;54.40;;;;;;5021144;28;20879;-68
2023/06/08 02:36:31;;;;;;;8.93;7.60;;;24.50;54.50;;;;;;5019886;28;20501;-69
2023/06/08 02:39:02;;;;;;;9.77;8.97;;;24.50;54.50;;;;;;5043823;28;20493;-69
2023/06/08 02:41:31;;;;;;;9.03;8.27;;;24.50;54.50;;;;;;5026159;28;20810;-69
2023/06/08 02:43:59;;;;;;;8.20;7.60;;;24.50;54.40;;;;;;5020620;28;20951;-67
2023/06/08 02:46:31;;;;;;;9.33;8.27;;;24.50;54.40;;;;;;5040612;28;20474;-69
2023/06/08 02:49:00;;;;;;;7.77;7.17;;;24.40;54.40;;;;;;5032410;28;20436;-69
2023/06/08 02:51:28;;;;;;;9.07;8.27;;;24.40;54.40;;;;;;5036569;28;20423;-68
2023/06/08 02:53:56;;;;;;;8.87;7.97;;;24.40;54.40;;;;;;5031622;28;20895;-69
2023/06/08 02:56:25;;;;;;;8.20;7.50;;;24.40;54.50;;;;;;5039597;28;20878;-68
2023/06/08 02:58:54;;;;;;;8.37;7.80;;;24.40;54.50;;;;;;5011208;28;20949;-69
2023/06/08 03:01:24;;;;;;;8.10;7.50;;;24.40;54.50;;;;;;5020130;28;20470;-69
2023/06/08 03:04:01;;;;;;;7.60;7.00;;;24.40;54.50;;;;;;5020409;28;20967;-69
2023/06/08 03:06:36;;;;;;;8.83;8.13;;;24.40;54.50;;;;;;5016752;28;20561;-68
2023/06/08 03:09:10;;;;;;;8.83;8.17;;;24.40;54.50;;;;;;5021537;28;20444;-69
2023/06/08 03:11:42;;;;;;;8.80;8.00;;;24.40;54.50;;;;;;5017142;28;20837;-69
2023/06/08 03:14:12;;;;;;;7.43;6.93;;;24.40;54.50;;;;;;5028285;28;20454;-69
2023/06/08 03:16:41;;;;;;;7.30;6.70;;;24.40;54.50;;;;;;5013386;28;20460;-68
2023/06/08 03:19:12;;;;;;;7.90;7.20;;;24.40;54.60;;;;;;5016547;28;20458;-69
2023/06/08 03:21:42;;;;;;;7.60;7.00;;;24.30;54.50;;;;;;4989096;28;20833;-68
2023/06/08 03:24:11;;;;;;;6.73;6.23;;;24.30;54.40;;;;;;5028099;28;20439;-69
2023/06/08 03:26:40;;;;;;;8.03;7.43;;;24.40;54.50;;;;;;5037933;28;20477;-68
2023/06/08 03:29:11;;;;;;;7.87;7.27;;;24.40;54.50;;;;;;5036774;28;20884;-69
2023/06/08 03:31:42;;;;;;;8.57;7.90;;;24.30;54.40;;;;;;5024474;28;20451;-69
2023/06/08 03:34:18;;;;;;;7.47;6.90;;;24.30;54.50;;;;;;5028870;28;20478;-69
2023/06/08 03:36:48;;;;;;;7.93;7.33;;;24.30;54.50;;;;;;5029270;28;20465;-69
2023/06/08 03:39:20;;;;;;;8.50;7.90;;;24.30;54.40;;;;;;5024465;28;20956;-69
2023/06/08 03:41:48;;;;;;;8.20;7.57;;;24.30;54.50;;;;;;5007840;28;21010;-68
2023/06/08 03:44:18;;;;;;;7.13;6.63;;;24.30;54.50;;;;;;5018965;28;20868;-68
2023/06/08 03:46:47;;;;;;;8.40;7.80;;;24.30;54.50;;;;;;5017890;28;20489;-69
2023/06/08 03:49:17;;;;;;;7.80;7.30;;;24.30;54.50;;;;;;5026726;28;20438;-68
2023/06/08 03:51:46;;;;;;;7.30;6.60;;;24.30;54.50;;;;;;5038322;28;20427;-69
2023/06/08 03:54:15;;;;;;;7.70;7.10;;;24.30;54.50;;;;;;5019051;28;20541;-69
2023/06/08 03:56:43;;;;;;;7.50;6.90;;;24.30;54.60;;;;;;5025243;28;20473;-69
2023/06/08 03:59:12;;;;;;;7.90;7.20;;;24.30;54.50;;;;;;5033195;28;20461;-69
2023/06/08 04:01:45;;;;;;;7.70;6.73;;;24.30;54.50;;;;;;5031068;28;21056;-68
2023/06/08 04:04:15;;;;;;;7.63;7.03;;;24.30;54.60;;;;;;5033403;28;20716;-69
2023/06/08 04:06:45;;;;;;;7.50;7.00;;;24.20;54.50;;;;;;5031897;28;20513;-69
2023/06/08 04:09:14;;;;;;;8.53;7.83;;;24.20;54.60;;;;;;5040952;28;21125;-68
2023/06/08 04:11:44;;;;;;;7.27;6.67;;;24.20;54.60;;;;;;5024449;28;20474;-68
2023/06/08 04:14:13;;;;;;;8.93;8.13;;;24.20;54.50;;;;;;5035460;28;20618;-69
2023/06/08 04:16:41;;;;;;;7.30;6.70;;;24.20;54.50;;;;;;5031999;28;20512;-69
2023/06/08 04:19:10;;;;;;;7.80;7.20;;;24.20;54.60;;;;;;5027050;28;20494;-69
2023/06/08 04:21:39;;;;;;;7.10;6.60;;;24.20;54.60;;;;;;5025046;28;20474;-69
2023/06/08 04:24:13;;;;;;;5.87;5.37;;;24.20;54.70;;;;;;5031407;28;20446;-69
2023/06/08 04:26:42;;;;;;;7.20;6.70;;;24.20;54.70;;;;;;5042671;28;20481;-69
2023/06/08 04:29:10;;;;;;;7.83;7.27;;;24.20;54.60;;;;;;5032387;28;20826;-69
2023/06/08 04:31:40;;;;;;;7.10;6.60;;;24.20;54.60;;;;;;5019189;28;20446;-69
2023/06/08 04:34:11;;;;;;;9.17;8.47;;;24.20;54.60;;;;;;5027755;28;20479;-68
2023/06/08 04:36:42;;;;;;;7.77;7.17;;;24.20;54.50;;;;;;5034931;28;20456;-69
2023/06/08 04:39:14;;;;;;;7.70;7.10;;;24.10;54.50;;;;;;5023086;28;20440;-69
2023/06/08 04:41:45;;;;;;;8.00;7.40;;;24.10;54.60;;;;;;5037846;28;20901;-69
2023/06/08 04:44:18;;;;;;;7.13;6.63;;;24.20;54.70;;;;;;5029816;28;21388;-69
2023/06/08 04:46:48;;;;;;;7.77;7.17;;;24.10;54.50;;;;;;5024466;28;20502;-69
2023/06/08 04:49:17;;;;;;;7.73;7.13;;;24.10;54.60;;;;;;5036668;28;20455;-69
2023/06/08 04:51:47;;;;;;;8.03;7.37;;;24.10;54.60;;;;;;5026882;28;20437;-69
2023/06/08 04:54:21;;;;;;;7.03;6.50;;;24.10;54.60;;;;;;5036064;28;20465;-69
2023/06/08 04:56:49;;;;;;;7.20;6.70;;;24.10;54.70;;;;;;5023981;28;20981;-68
2023/06/08 04:59:17;;;;;;;8.77;8.07;;;24.10;54.70;;;;;;5034752;28;21003;-69
2023/06/08 05:01:46;;;;;;;8.30;7.00;;;24.10;54.80;;;;;;5027810;28;21076;-69
2023/06/08 05:04:15;;;;;;;7.70;7.10;;;24.10;54.80;;;;;;5031002;28;20467;-69
2023/06/08 05:06:43;;;;;;;8.27;7.63;;;24.10;54.80;;;;;;5041819;28;20562;-69
2023/06/08 05:09:12;;;;;;;7.93;7.20;;;24.10;54.70;;;;;;5023139;28;20451;-68
2023/06/08 05:11:42;;;;;;;6.57;6.07;;;24.10;54.80;;;;;;5020601;28;20451;-69
2023/06/08 05:14:10;;;;;;;6.80;6.30;;;24.10;54.80;;;;;;5027713;28;20444;-69
2023/06/08 05:16:39;;;;;;;7.57;6.77;;;24.10;54.80;;;;;;5039057;28;21049;-68
2023/06/08 05:19:08;;;;;;;6.60;6.10;;;24.10;54.80;;;;;;5041522;28;20450;-69
2023/06/08 05:21:37;;;;;;;7.37;6.83;;;24.10;54.90;;;;;;5018906;28;20929;-69
2023/06/08 05:24:06;;;;;;;7.97;7.27;;;24.10;54.80;;;;;;5033423;28;20453;-69
2023/06/08 05:26:35;;;;;;;7.23;6.70;;;24.10;54.80;;;;;;5015421;28;20472;-69
2023/06/08 05:29:04;;;;;;;6.70;6.17;;;24.10;54.70;;;;;;5030665;28;20427;-69
2023/06/08 05:31:33;;;;;;;7.73;7.03;;;24.10;54.80;;;;;;5032633;28;20445;-69
2023/06/08 05:34:01;;;;;;;7.50;6.90;;;24.10;54.60;;;;;;5036263;28;20453;-69
2023/06/08 05:36:30;;;;;;;7.23;6.70;;;24.10;54.70;;;;;;5018422;28;20509;-69
2023/06/08 05:39:03;;;;;;;7.00;6.43;;;24.10;54.70;;;;;;5019525;28;20455;-69
2023/06/08 05:41:31;;;;;;;7.47;6.90;;;24.10;54.80;;;;;;5042323;28;21021;-69
2023/06/08 05:44:00;;;;;;;7.70;7.00;;;24.10;54.80;;;;;;5033084;28;20819;-69
2023/06/08 05:46:30;;;;;;;7.50;6.90;;;24.10;54.80;;;;;;5023970;28;20479;-69
2023/06/08 05:48:58;;;;;;;7.33;6.80;;;24.10;54.80;;;;;;5014370;28;20543;-69
2023/06/08 05:51:27;;;;;;;7.23;6.70;;;24.10;54.80;;;;;;5020076;28;20433;-69
2023/06/08 05:53:55;;;;;;;8.03;7.33;;;24.00;54.70;;;;;;5025356;28;20496;-69
2023/06/08 05:56:25;;;;;;;7.17;6.57;;;24.10;54.80;;;;;;5038200;28;20484;-69
2023/06/08 05:58:54;;;;;;;6.70;6.20;;;24.10;54.80;;;;;;5029552;28;20462;-69
2023/06/08 06:01:23;;;;;;;6.80;6.27;;;24.10;54.80;;;;;;5019241;28;20473;-70
2023/06/08 06:03:53;;;;;;;7.70;7.10;;;24.10;54.90;;;;;;5018756;28;20855;-69
2023/06/08 06:06:22;;;;;;;7.10;6.60;;;24.10;54.80;;;;;;5006953;28;20455;-68
2023/06/08 06:08:50;;;;;;;7.20;6.60;;;24.00;54.70;;;;;;5015518;28;20436;-68
2023/06/08 06:11:18;;;;;;;6.70;6.20;;;24.00;54.70;;;;;;5021501;28;20476;-68
2023/06/08 06:13:47;;;;;;;7.47;6.87;;;24.10;54.90;;;;;;5019881;28;20545;-69
2023/06/08 06:16:15;;;;;;;6.50;6.00;;;24.10;54.80;;;;;;5022623;28;20870;-68
2023/06/08 06:18:45;;;;;;;8.30;7.70;;;24.00;54.80;;;;;;5006286;28;20499;-69
2023/06/08 06:21:14;;;;;;;7.87;7.27;;;24.10;54.80;;;;;;5032171;28;20475;-69
2023/06/08 06:23:44;;;;;;;8.27;6.90;;;24.00;54.80;;;;;;5022711;28;20813;-68
2023/06/08 06:26:13;;;;;;;7.47;6.87;;;24.10;54.90;;;;;;5031457;28;20477;-68
2023/06/08 06:28:41;;;;;;;7.90;7.10;;;24.00;54.80;;;;;;5034000;28;20487;-68
2023/06/08 06:31:09;;;;;;;6.67;6.17;;;24.00;54.80;;;;;;5031204;28;20482;-68
2023/06/08 06:33:38;;;;;;;7.90;7.13;;;24.00;54.80;;;;;;5015088;28;20458;-68
2023/06/08 06:36:07;;;;;;;8.07;7.40;;;24.00;54.80;;;;;;5017768;28;20463;-69
2023/06/08 06:38:36;;;;;;;7.20;6.50;;;24.00;54.80;;;;;;5020706;28;20459;-69
2023/06/08 06:41:05;;;;;;;6.60;6.07;;;24.00;54.80;;;;;;5001942;28;20485;-68
2023/06/08 06:43:33;;;;;;;8.17;7.47;;;24.00;54.80;;;;;;5017114;28;20865;-67
2023/06/08 06:46:12;;;;;;;6.40;5.80;;;24.00;54.90;;;;;;5023510;28;20502;-68
2023/06/08 06:48:40;;;;;;;7.60;7.00;;;24.00;54.90;;;;;;5024124;28;20553;-68
2023/06/08 06:51:09;;;;;;;8.03;7.33;;;24.00;54.90;;;;;;5005596;28;20499;-67
2023/06/08 06:53:39;;;;;;;7.00;6.30;;;24.00;54.80;;;;;;5017633;28;20485;-68
2023/06/08 06:56:07;;;;;;;6.80;6.30;;;24.00;54.90;;;;;;5022105;28;20482;-68
2023/06/08 06:58:35;;;;;;;5.90;5.50;;;24.00;55.10;;;;;;5024637;28;20492;-67
2023/06/08 07:01:04;;;;;;;7.70;7.00;;;24.00;55.10;;;;;;5024508;28;21184;-68
2023/06/08 07:03:33;;;;;;;9.50;7.27;;;24.00;55.00;;;;;;5020344;28;20493;-68
2023/06/08 07:06:04;;;;;;;7.27;6.67;;;24.00;55.10;;;;;;5038232;28;20566;-68
2023/06/08 07:08:32;;;;;;;7.10;6.63;;;24.00;54.70;;;;;;5016725;28;20447;-68
2023/06/08 07:11:02;;;;;;;6.37;5.87;;;24.00;54.90;;;;;;5010530;28;21008;-68
2023/06/08 07:13:30;;;;;;;8.20;7.50;;;24.00;54.90;;;;;;5021457;28;20524;-69
2023/06/08 07:15:59;;;;;;;7.97;7.27;;;24.00;55.20;;;;;;5027713;28;21050;-68
2023/06/08 07:18:27;;;;;;;7.10;6.60;;;24.00;54.90;;;;;;5012905;28;20428;-68
2023/06/08 07:20:55;;;;;;;8.43;6.70;;;24.00;55.10;;;;;;5012719;28;20475;-69
2023/06/08 07:23:24;;;;;;;7.30;6.70;;;24.00;55.20;;;;;;5033555;28;20482;-68
2023/06/08 07:26:14;;;;;;;6.83;6.23;;;24.00;55.10;;;;;;5016589;28;21007;-68
2023/06/08 07:28:58;;;;;;;6.67;6.13;;;24.00;55.10;;;;;;5032772;28;20456;-68
2023/06/08 07:31:27;;;;;;;6.23;5.70;;;24.00;55.10;;;;;;5017198;28;20470;-68
2023/06/08 07:33:57;;;;;;;13.10;9.70;;;24.00;55.00;;;;;;5016783;28;20456;-68
2023/06/08 07:36:28;;;;;;;10.10;9.07;;;24.10;54.80;;;;;;5017258;28;20836;-66
2023/06/08 07:38:57;;;;;;;9.77;8.67;;;24.00;54.70;;;;;;5029922;28;20504;-68
2023/06/08 07:41:27;;;;;;;8.63;7.90;;;24.00;55.00;;;;;;5014838;28;20474;-68
2023/06/08 07:43:56;;;;;;;9.10;7.80;;;24.00;54.90;;;;;;5028398;28;20594;-67
2023/06/08 07:46:25;;;;;;;7.10;6.60;;;24.00;55.20;;;;;;5016433;28;21255;-68
2023/06/08 07:48:53;;;;;;;8.03;7.17;;;24.00;55.10;;;;;;5027315;28;20954;-68
2023/06/08 07:51:21;;;;;;;7.93;7.23;;;23.90;55.10;;;;;;5026600;28;20781;-68
2023/06/08 07:53:50;;;;;;;11.60;10.50;;;23.90;55.00;;;;;;5038565;28;20995;-67
2023/06/08 07:56:19;;;;;;;11.60;10.50;;;23.80;55.30;;;;;;5039190;28;20501;-68
2023/06/08 07:58:49;;;;;;;12.13;10.60;;;23.60;55.90;;;;;;5023302;28;20858;-68
2023/06/08 08:01:17;;;;;;;10.37;9.00;;;23.60;55.80;;;;;;5023182;28;20518;-68
2023/06/08 08:03:46;;;;;;;9.83;8.77;;;23.70;55.80;;;;;;5007315;28;20509;-68
2023/06/08 08:06:15;;;;;;;9.50;8.63;;;23.70;55.60;;;;;;5037092;28;20510;-68
2023/06/08 08:08:43;;;;;;;10.13;7.63;;;23.80;55.70;;;;;;5018598;28;20446;-69
2023/06/08 08:11:12;;;;;;;10.40;8.37;;;23.80;55.60;;;;;;5023984;28;20479;-68
2023/06/08 08:13:40;;;;;;;10.33;8.17;;;23.90;55.50;;;;;;5023912;28;20454;-68
2023/06/08 08:16:10;;;;;;;8.47;7.67;;;23.80;55.40;;;;;;5015201;28;20545;-68
2023/06/08 08:18:38;;;;;;;8.13;7.43;;;23.90;55.40;;;;;;5010138;28;20439;-69
2023/06/08 08:21:07;;;;;;;8.67;7.73;;;23.90;55.40;;;;;;5020943;28;20466;-67
2023/06/08 08:23:35;;;;;;;8.53;7.63;;;23.90;55.40;;;;;;5024030;28;20577;-68
2023/06/08 08:26:03;;;;;;;8.10;7.40;;;23.90;55.40;;;;;;5004556;28;20569;-69
2023/06/08 08:28:33;;;;;;;8.17;7.50;;;23.90;55.30;;;;;;5029378;28;20454;-68
2023/06/08 08:31:01;;;;;;;9.03;8.20;;;23.90;55.30;;;;;;5034408;28;20476;-68
2023/06/08 08:33:31;;;;;;;8.70;7.87;;;23.90;55.40;;;;;;5022015;28;20454;-69
2023/06/08 08:36:00;;;;;;;9.13;7.17;;;23.90;55.40;;;;;;5039539;28;20507;-68
2023/06/08 08:38:29;;;;;;;7.77;6.80;;;23.90;55.30;;;;;;5042916;28;20436;-69
2023/06/08 08:41:04;;;;;;;7.40;6.73;;;23.90;55.40;;;;;;5042617;28;20500;-67
2023/06/08 08:43:49;;;;;;;8.67;6.33;;;23.90;55.40;;;;;;5024488;28;20882;-69
2023/06/08 08:46:21;;;;;;;7.60;6.73;;;23.90;55.40;;;;;;5022624;28;20474;-68
2023/06/08 08:48:53;;;;;;;6.40;5.90;;;23.90;55.40;;;;;;5026805;28;20513;-68
2023/06/08 08:51:21;;;;;;;6.87;6.27;;;23.90;55.40;;;;;;5033843;28;21066;-68
2023/06/08 08:53:52;;;;;;;7.30;6.70;;;23.90;55.40;;;;;;5036099;28;20453;-68
2023/06/08 08:56:21;;;;;;;7.30;6.70;;;23.90;55.40;;;;;;5023050;28;20488;-68
2023/06/08 08:58:53;;;;;;;6.57;6.07;;;23.90;55.40;;;;;;5038765;28;20957;-67
2023/06/08 09:01:23;;;;;;;7.63;6.93;;;23.90;55.40;;;;;;5040202;28;20691;-68
2023/06/08 09:03:53;;;;;;;6.60;6.10;;;23.90;55.40;;;;;;5034077;28;20469;-66
2023/06/08 09:06:22;;;;;;;10.30;7.27;;;23.90;55.40;;;;;;5025008;28;21195;-68
2023/06/08 09:08:51;;;;;;;6.80;6.20;;;23.90;55.40;;;;;;5014831;28;20455;-69
2023/06/08 09:11:21;;;;;;;6.60;6.10;;;23.90;55.50;;;;;;5019125;28;20473;-68
2023/06/08 09:13:49;;;;;;;6.90;6.30;;;23.90;55.40;;;;;;5019037;28;20450;-68
2023/06/08 09:16:19;;;;;;;7.03;6.37;;;23.90;55.40;;;;;;5017837;28;20896;-67
2023/06/08 09:19:06;;;;;;;6.13;5.53;;;23.90;55.40;;;;;;5032742;28;20545;-67
2023/06/08 09:21:35;;;;;;;6.37;5.87;;;23.90;55.50;;;;;;5013290;28;20478;-68
2023/06/08 09:24:05;;;;;;;7.20;6.60;;;23.90;55.40;;;;;;5019966;28;20458;-68
2023/06/08 09:26:47;;;;;;;6.70;6.10;;;24.00;55.40;;;;;;5015657;28;21105;-68
2023/06/08 09:29:32;;;;;;;7.23;6.57;;;23.90;55.40;;;;;;5014601;28;20443;-68
2023/06/08 09:32:01;;;;;;;7.20;6.70;;;23.90;55.40;;;;;;5014669;28;20459;-69
2023/06/08 09:34:33;;;;;;;7.20;6.57;;;23.90;55.40;;;;;;5015295;28;20469;-68
2023/06/08 09:37:07;;;;;;;7.00;6.30;;;24.00;55.60;;;;;;5031918;28;20474;-67
2023/06/08 09:39:40;;;;;;;7.23;6.60;;;24.00;55.60;;;;;;5019257;28;20454;-67
2023/06/08 09:42:09;;;;;;;6.50;6.00;;;23.90;55.40;;;;;;5027940;28;20827;-69
2023/06/08 09:44:38;;;;;;;6.70;6.10;;;24.00;55.50;;;;;;5035759;28;20475;-68
2023/06/08 09:47:22;;;;;;;6.43;5.93;;;23.90;55.40;;;;;;5025014;28;20472;-69
2023/06/08 09:49:54;;;;;;;7.10;6.50;;;23.90;55.50;;;;;;5016204;28;21033;-67
2023/06/08 09:52:24;;;;;;;7.33;6.63;;;24.00;55.50;;;;;;5036783;28;20455;-67
2023/06/08 09:54:53;;;;;;;6.73;6.13;;;23.90;55.40;;;;;;5017611;28;20513;-68
2023/06/08 09:57:24;;;;;;;6.97;6.47;;;23.90;55.40;;;;;;5024085;28;20443;-69
2023/06/08 09:59:57;;;;;;;7.30;6.73;;;23.90;55.40;;;;;;5015431;28;20451;-67
2023/06/08 10:02:31;;;;;;;6.53;5.93;;;24.00;55.50;;;;;;5024641;28;20440;-68
2023/06/08 10:05:09;;;;;;;8.53;7.73;;;24.00;55.70;;;;;;5030266;28;20480;-68
2023/06/08 10:07:39;;;;;;;7.97;7.37;;;24.00;55.60;;;;;;5039154;28;20493;-69
2023/06/08 10:10:13;;;;;;;8.53;7.83;;;24.00;55.60;;;;;;5022935;28;20530;-68
2023/06/08 10:12:43;;;;;;;7.97;7.27;;;23.90;55.60;;;;;;5019310;28;21052;-68
2023/06/08 10:15:12;;;;;;;8.10;7.30;;;23.90;55.60;;;;;;5023621;28;20471;-72
2023/06/08 10:17:41;;;;;;;7.30;6.70;;;24.00;55.60;;;;;;5021194;28;20481;-71
2023/06/08 10:20:14;;;;;;;7.47;6.77;;;24.00;55.60;;;;;;5027230;28;20537;-71
2023/06/08 10:22:43;;;;;;;7.33;6.73;;;24.00;55.70;;;;;;5022262;28;20443;-71
2023/06/08 10:25:13;;;;;;;7.97;7.20;;;24.00;55.60;;;;;;5014251;28;20832;-72
2023/06/08 10:27:48;;;;;;;6.70;6.20;;;24.00;55.60;;;;;;5034985;28;20881;-71
2023/06/08 10:30:28;;;;;;;7.10;6.50;;;24.00;55.60;;;;;;5021692;28;20449;-72
2023/06/08 10:33:08;;;;;;;9.10;7.83;;;24.00;55.80;;;;;;5017583;28;20459;-71
2023/06/08 10:35:40;;;;;;;7.13;6.63;;;24.00;55.80;;;;;;5031224;28;20485;-70
2023/06/08 10:38:10;;;;;;;8.30;7.50;;;24.00;55.70;;;;;;5036594;28;20963;-72
2023/06/08 10:40:46;;;;;;;8.00;6.80;;;24.00;55.70;;;;;;5017227;28;20564;-72
2023/06/08 10:43:15;;;;;;;7.40;6.70;;;24.00;55.70;;;;;;5035613;28;21116;-70
2023/06/08 10:46:04;;;;;;;9.43;7.70;;;24.00;55.60;;;;;;5035589;28;20474;-72
2023/06/08 10:48:37;;;;;;;7.50;6.80;;;24.10;55.70;;;;;;5018753;28;21158;-71
2023/06/08 10:51:10;;;;;;;7.30;6.70;;;24.10;55.60;;;;;;5017867;28;20469;-71
2023/06/08 10:53:56;;;;;;;7.23;6.57;;;24.10;55.90;;;;;;5023961;28;20861;-72
2023/06/08 10:56:27;;;;;;;7.50;6.90;;;24.10;55.90;;;;;;5012592;28;20590;-71
2023/06/08 10:58:55;;;;;;;7.53;6.83;;;24.10;55.80;;;;;;5033264;28;20545;-72
2023/06/08 11:01:30;;;;;;;7.47;6.60;;;24.10;55.90;;;;;;4994918;28;20481;-71
2023/06/08 11:04:00;;;;;;;7.03;6.33;;;24.10;55.90;;;;;;5029485;28;20477;-72
2023/06/08 11:06:39;;;;;;;7.30;6.80;;;24.10;55.90;;;;;;5011892;28;20566;-71
2023/06/08 11:09:07;;;;;;;7.00;6.40;;;24.10;55.90;;;;;;5022181;28;20808;-71
2023/06/08 11:11:36;;;;;;;7.77;7.07;;;24.10;56.20;;;;;;5036018;28;20455;-71
2023/06/08 11:14:04;;;;;;;7.70;7.10;;;24.10;55.90;;;;;;5028159;28;20451;-71
2023/06/08 11:16:33;;;;;;;7.03;6.53;;;24.10;56.00;;;;;;5024468;28;20856;-70
2023/06/08 11:19:01;;;;;;;6.50;5.90;;;24.10;55.90;;;;;;5037041;28;20534;-71
2023/06/08 11:21:30;;;;;;;7.10;6.50;;;24.10;55.90;;;;;;5024408;28;20555;-71
2023/06/08 11:24:02;;;;;;;7.07;6.47;;;24.10;55.90;;;;;;5022020;28;20450;-71
2023/06/08 11:26:31;;;;;;;7.23;6.53;;;24.10;55.90;;;;;;5022913;28;21564;-71
2023/06/08 11:29:02;;;;;;;7.63;6.83;;;24.20;55.90;;;;;;5044583;28;20486;-71
2023/06/08 11:31:34;;;;;;;6.93;6.33;;;24.20;55.80;;;;;;5037294;28;20478;-70
2023/06/08 11:34:02;;;;;;;7.67;6.97;;;24.20;55.90;;;;;;5026704;28;20445;-71
2023/06/08 11:36:32;;;;;;;7.33;6.73;;;24.20;55.90;;;;;;5010579;28;21105;-71
2023/06/08 11:39:03;;;;;;;7.30;6.70;;;24.20;55.90;;;;;;5013876;28;20440;-67
2023/06/08 11:41:31;;;;;;;7.67;7.00;;;24.10;55.80;;;;;;5023329;28;20474;-72
2023/06/08 11:44:00;;;;;;;7.30;6.70;;;24.20;55.80;;;;;;5030770;28;20467;-67
2023/06/08 11:46:32;;;;;;;7.40;6.70;;;24.20;55.80;;;;;;5025165;28;20588;-68
2023/06/08 11:49:07;;;;;;;7.40;6.80;;;24.20;55.70;;;;;;5026060;28;20443;-71
2023/06/08 11:51:45;;;;;;;7.77;7.20;;;24.20;55.70;;;;;;5040977;28;21001;-72
2023/06/08 11:54:25;;;;;;;7.57;6.87;;;24.20;55.80;;;;;;5028624;28;20996;-69
2023/06/08 11:56:54;;;;;;;6.87;6.37;;;24.20;55.80;;;;;;5022156;28;20541;-69
2023/06/08 11:59:26;;;;;;;7.17;6.67;;;24.20;55.90;;;;;;5022630;28;20482;-68
2023/06/08 12:01:56;;;;;;;7.33;6.73;;;24.20;55.70;;;;;;5017923;28;20458;-68
2023/06/08 12:04:30;;;;;;;6.67;6.07;;;24.30;55.90;;;;;;5035341;28;20450;-68
2023/06/08 12:07:00;;;;;;;5.93;5.53;;;24.20;55.80;;;;;;5042175;28;20977;-68
2023/06/08 12:09:30;;;;;;;6.80;6.30;;;24.20;55.80;;;;;;5025951;28;20525;-67
2023/06/08 12:12:07;;;;;;;6.73;6.13;;;24.20;55.80;;;;;;5020388;28;20492;-69
2023/06/08 12:14:36;;;;;;;6.87;6.27;;;24.20;55.80;;;;;;5018864;28;20442;-72
2023/06/08 12:17:05;;;;;;;7.13;6.53;;;24.30;55.90;;;;;;5020603;28;20465;-71
2023/06/08 12:19:35;;;;;;;6.20;5.70;;;24.30;55.80;;;;;;5017475;28;20483;-72
2023/06/08 12:22:04;;;;;;;6.33;5.93;;;24.30;55.80;;;;;;5022323;28;21186;-71
2023/06/08 12:24:33;;;;;;;7.33;6.77;;;24.30;57.00;;;;;;5041072;28;20654;-72
2023/06/08 12:27:03;;;;;;;7.17;6.57;;;24.30;55.80;;;;;;5016309;28;20491;-72
2023/06/08 12:29:31;;;;;;;6.43;6.03;;;24.30;55.80;;;;;;5022094;28;20487;-71
2023/06/08 12:32:00;;;;;;;6.70;6.20;;;24.30;55.90;;;;;;5024517;28;20450;-71
2023/06/08 12:34:28;;;;;;;6.93;6.43;;;24.30;56.00;;;;;;5021424;28;20455;-71
2023/06/08 12:36:57;;;;;;;8.17;7.57;;;24.30;55.90;;;;;;5038026;28;21363;-71
2023/06/08 12:39:26;;;;;;;6.90;6.40;;;24.30;56.00;;;;;;5024353;28;20469;-72
2023/06/08 12:41:57;;;;;;;7.30;6.80;;;24.30;55.60;;;;;;5015507;28;20463;-71
2023/06/08 12:44:26;;;;;;;6.77;6.03;;;24.30;55.90;;;;;;5035798;28;20528;-71
2023/06/08 12:46:54;;;;;;;7.00;6.50;;;24.30;55.70;;;;;;5036927;28;20996;-72
2023/06/08 12:49:23;;;;;;;7.70;7.10;;;24.40;56.00;;;;;;5037610;28;20472;-71
2023/06/08 12:51:53;;;;;;;6.70;6.20;;;24.40;56.00;;;;;;5024398;28;20500;-71
2023/06/08 12:54:21;;;;;;;7.40;6.80;;;24.40;55.90;;;;;;5022319;28;20967;-72
2023/06/08 12:56:50;;;;;;;6.47;5.97;;;24.40;55.90;;;;;;5037224;28;20471;-72
2023/06/08 12:59:20;;;;;;;7.43;6.83;;;24.40;56.00;;;;;;5033933;28;20451;-72
2023/06/08 13:01:49;;;;;;;6.57;5.97;;;24.40;56.00;;;;;;5016127;28;20457;-71